createdAt,value
2018-08-13T00:00:50.599Z,20.60
2018-08-13T00:03:18.062Z,20.60
2018-08-13T00:05:46.176Z,20.60
2018-08-13T00:08:13.637Z,20.40
2018-08-13T00:10:41.967Z,20.50
2018-08-13T00:13:09.419Z,20.40
2018-08-13T00:15:36.888Z,20.40
2018-08-13T00:18:04.361Z,20.40
2018-08-13T00:20:31.920Z,20.40
2018-08-13T00:22:59.376Z,20.30
2018-08-13T00:25:26.847Z,20.20
2018-08-13T00:27:54.304Z,20.30
2018-08-13T00:30:21.751Z,20.30
2018-08-13T00:32:49.231Z,20.30
2018-08-13T00:35:16.690Z,20.30
2018-08-13T00:37:44.514Z,20.30
2018-08-13T00:40:12.024Z,20.30
2018-08-13T00:42:39.595Z,20.40
2018-08-13T00:45:07.171Z,20.40
2018-08-13T00:47:34.721Z,20.40
2018-08-13T00:50:02.213Z,20.20
2018-08-13T00:52:29.659Z,20.20
2018-08-13T00:54:57.107Z,20.20
2018-08-13T00:57:24.571Z,20.20
2018-08-13T00:59:52.023Z,20.20
2018-08-13T01:02:19.598Z,20.30
2018-08-13T01:04:47.048Z,20.30
2018-08-13T01:07:14.510Z,20.40
2018-08-13T01:09:41.968Z,20.50
2018-08-13T01:12:09.443Z,20.40
2018-08-13T01:14:36.906Z,20.20
2018-08-13T01:17:04.369Z,20.20
2018-08-13T01:19:31.933Z,20.50
2018-08-13T01:21:59.382Z,20.40
2018-08-13T01:24:26.840Z,20.30
2018-08-13T01:26:54.299Z,20.20
2018-08-13T01:29:21.759Z,20.10
2018-08-13T01:31:49.978Z,20.10
2018-08-13T01:34:17.435Z,20.00
2018-08-13T01:36:44.874Z,20.00
2018-08-13T01:39:12.446Z,20.00
2018-08-13T01:41:39.902Z,20.00
2018-08-13T01:44:07.373Z,20.00
2018-08-13T01:46:34.933Z,19.80
2018-08-13T01:49:02.387Z,19.80
2018-08-13T01:51:29.845Z,19.80
2018-08-13T01:53:57.326Z,19.70
2018-08-13T01:56:24.879Z,19.70
2018-08-13T01:58:52.331Z,19.90
2018-08-13T02:01:19.826Z,19.80
2018-08-13T02:03:47.255Z,19.90
2018-08-13T02:06:14.730Z,19.90
2018-08-13T02:08:42.180Z,19.80
2018-08-13T02:11:09.638Z,19.80
2018-08-13T02:13:37.120Z,19.80
2018-08-13T02:16:04.589Z,19.70
2018-08-13T02:18:32.155Z,19.60
2018-08-13T02:20:59.597Z,19.50
2018-08-13T02:23:27.059Z,19.60
2018-08-13T02:25:54.525Z,19.60
2018-08-13T02:28:22.092Z,19.60
2018-08-13T02:30:49.555Z,19.50
2018-08-13T02:33:17.125Z,19.60
2018-08-13T02:35:44.674Z,19.70
2018-08-13T02:38:12.157Z,19.70
2018-08-13T02:40:39.707Z,19.60
2018-08-13T02:43:07.279Z,19.60
2018-08-13T02:45:34.842Z,19.60
2018-08-13T02:48:02.404Z,19.70
2018-08-13T02:50:29.864Z,19.70
2018-08-13T02:52:57.496Z,19.70
2018-08-13T02:55:24.994Z,19.70
2018-08-13T02:57:52.460Z,19.70
2018-08-13T03:00:19.917Z,19.60
2018-08-13T03:02:47.385Z,19.60
2018-08-13T03:05:14.940Z,19.60
2018-08-13T03:07:42.395Z,19.50
2018-08-13T03:10:10.616Z,19.50
2018-08-13T03:12:38.075Z,19.50
2018-08-13T03:15:06.291Z,19.50
2018-08-13T03:17:33.751Z,19.50
2018-08-13T03:20:01.219Z,19.60
2018-08-13T03:22:28.682Z,19.60
2018-08-13T03:24:56.179Z,19.60
2018-08-13T03:27:23.643Z,19.60
2018-08-13T03:29:51.210Z,19.50
2018-08-13T03:32:18.772Z,19.50
2018-08-13T03:34:46.241Z,19.40
2018-08-13T03:37:13.811Z,19.30
2018-08-13T03:39:41.267Z,19.40
2018-08-13T03:42:08.725Z,19.40
2018-08-13T03:44:36.290Z,19.40
2018-08-13T03:47:03.764Z,19.50
2018-08-13T03:49:31.305Z,19.50
2018-08-13T03:51:58.755Z,19.60
2018-08-13T03:54:26.213Z,19.60
2018-08-13T03:56:53.660Z,19.70
2018-08-13T03:59:21.119Z,19.70
2018-08-13T04:01:48.627Z,19.60
2018-08-13T04:04:16.088Z,19.60
2018-08-13T04:06:43.539Z,19.60
2018-08-13T04:09:11.115Z,19.50
2018-08-13T04:11:38.564Z,19.50
2018-08-13T04:14:06.132Z,19.50
2018-08-13T04:16:33.704Z,19.40
2018-08-13T04:19:01.156Z,19.50
2018-08-13T04:21:28.713Z,19.60
2018-08-13T04:23:56.159Z,19.40
2018-08-13T04:26:23.616Z,19.30
2018-08-13T04:28:51.079Z,19.20
2018-08-13T04:31:18.528Z,19.20
2018-08-13T04:33:45.990Z,19.20
2018-08-13T04:36:13.471Z,19.20
2018-08-13T04:38:41.012Z,19.20
2018-08-13T04:41:08.436Z,19.30
2018-08-13T04:43:35.992Z,19.20
2018-08-13T04:46:03.548Z,19.20
2018-08-13T04:48:31.323Z,19.20
2018-08-13T04:50:58.772Z,19.30
2018-08-13T04:53:26.224Z,19.20
2018-08-13T04:55:53.709Z,19.20
2018-08-13T04:58:21.172Z,19.20
2018-08-13T05:00:48.737Z,19.30
2018-08-13T05:03:16.293Z,19.30
2018-08-13T05:05:43.867Z,19.20
2018-08-13T05:08:11.424Z,19.30
2018-08-13T05:10:38.871Z,19.20
2018-08-13T05:13:06.350Z,19.10
2018-08-13T05:15:33.803Z,19.10
2018-08-13T05:18:01.267Z,19.20
2018-08-13T05:20:28.844Z,19.30
2018-08-13T05:22:56.299Z,19.30
2018-08-13T05:25:23.772Z,19.40
2018-08-13T05:27:51.228Z,19.30
2018-08-13T05:30:18.768Z,19.30
2018-08-13T05:32:46.142Z,19.30
2018-08-13T05:35:13.615Z,19.30
2018-08-13T05:37:41.061Z,19.30
2018-08-13T05:40:08.521Z,19.30
2018-08-13T05:42:35.994Z,19.40
2018-08-13T05:45:03.564Z,19.50
2018-08-13T05:47:31.024Z,19.60
2018-08-13T05:49:58.482Z,19.80
2018-08-13T05:52:25.938Z,20.00
2018-08-13T05:54:53.517Z,20.10
2018-08-13T05:57:21.076Z,20.20
2018-08-13T05:59:48.528Z,20.20
2018-08-13T06:02:16.003Z,19.80
2018-08-13T06:04:43.572Z,19.60
2018-08-13T06:07:11.034Z,19.50
2018-08-13T06:09:38.591Z,19.60
2018-08-13T06:12:06.060Z,19.60
2018-08-13T06:14:33.517Z,19.50
2018-08-13T06:17:00.988Z,19.50
2018-08-13T06:19:28.547Z,19.60
2018-08-13T06:21:56.120Z,19.60
2018-08-13T06:24:25.197Z,19.70
2018-08-13T06:26:52.560Z,19.70
2018-08-13T06:29:20.025Z,19.80
2018-08-13T06:31:47.466Z,19.80
2018-08-13T06:34:14.935Z,19.80
2018-08-13T06:36:42.391Z,19.80
2018-08-13T06:39:09.852Z,19.90
2018-08-13T06:41:37.320Z,20.00
2018-08-13T06:44:04.819Z,20.00
2018-08-13T06:46:33.039Z,20.00
2018-08-13T06:49:00.559Z,20.00
2018-08-13T06:51:28.160Z,20.10
2018-08-13T06:53:55.625Z,20.10
2018-08-13T06:56:23.135Z,20.10
2018-08-13T06:58:50.594Z,20.00
2018-08-13T07:01:18.222Z,20.10
2018-08-13T07:03:45.684Z,20.20
2018-08-13T07:06:13.208Z,20.10
2018-08-13T07:08:40.659Z,20.20
2018-08-13T07:11:08.127Z,20.20
2018-08-13T07:13:35.582Z,20.30
2018-08-13T07:16:04.573Z,20.40
2018-08-13T07:18:32.199Z,20.40
2018-08-13T07:21:00.423Z,20.50
2018-08-13T07:23:27.979Z,20.40
2018-08-13T07:25:55.427Z,20.50
2018-08-13T07:28:23.007Z,20.60
2018-08-13T07:30:50.464Z,20.60
2018-08-13T07:33:17.959Z,20.60
2018-08-13T07:35:45.513Z,20.70
2018-08-13T07:38:14.507Z,20.90
2018-08-13T07:40:42.053Z,20.90
2018-08-13T07:43:09.523Z,21.10
2018-08-13T07:45:36.999Z,21.20
2018-08-13T07:48:04.445Z,21.40
2018-08-13T07:50:31.914Z,21.30
2018-08-13T07:53:00.875Z,21.40
2018-08-13T07:55:28.372Z,21.40
2018-08-13T07:57:55.831Z,21.40
2018-08-13T08:00:23.395Z,21.40
2018-08-13T08:02:50.847Z,21.30
2018-08-13T08:05:18.418Z,21.30
2018-08-13T08:07:45.858Z,21.30
2018-08-13T08:10:13.313Z,21.30
2018-08-13T08:12:40.803Z,21.20
2018-08-13T08:15:08.256Z,21.20
2018-08-13T08:17:35.819Z,21.20
2018-08-13T08:20:03.287Z,21.20
2018-08-13T08:22:30.757Z,21.30
2018-08-13T08:24:58.211Z,21.30
2018-08-13T08:27:25.763Z,21.40
2018-08-13T08:29:53.220Z,21.40
2018-08-13T08:32:20.688Z,21.40
2018-08-13T08:34:48.233Z,21.40
2018-08-13T08:37:15.727Z,21.40
2018-08-13T08:39:43.301Z,21.30
2018-08-13T08:42:10.863Z,21.30
2018-08-13T08:44:38.330Z,21.30
2018-08-13T08:47:05.815Z,21.10
2018-08-13T08:49:33.248Z,20.90
2018-08-13T08:52:00.700Z,20.80
2018-08-13T08:54:28.162Z,20.80
2018-08-13T08:56:55.632Z,20.90
2018-08-13T08:59:23.108Z,21.00
2018-08-13T09:01:50.652Z,21.00
2018-08-13T09:04:18.117Z,21.00
2018-08-13T09:06:45.578Z,21.00
2018-08-13T09:09:13.028Z,20.90
2018-08-13T09:11:40.492Z,20.90
2018-08-13T09:14:08.007Z,20.90
2018-08-13T09:16:35.420Z,20.90
2018-08-13T09:19:14.700Z,20.90
2018-08-13T09:21:42.919Z,20.90
2018-08-13T09:24:22.444Z,20.90
2018-08-13T09:27:14.807Z,20.90
2018-08-13T09:33:03.377Z,20.90
2018-08-13T09:35:30.921Z,20.90
2018-08-13T09:37:58.476Z,20.90
2018-08-13T09:40:26.068Z,20.80
2018-08-13T09:42:53.610Z,20.90
2018-08-13T09:45:21.171Z,20.80
2018-08-13T09:47:48.631Z,20.90
2018-08-13T09:50:16.093Z,20.90
2018-08-13T09:52:43.675Z,20.80
2018-08-13T09:55:11.131Z,20.80
2018-08-13T09:57:38.690Z,20.80
2018-08-13T10:00:06.153Z,20.80
2018-08-13T10:02:33.715Z,20.70
2018-08-13T10:05:01.172Z,20.70
2018-08-13T10:07:28.741Z,20.70
2018-08-13T10:09:56.312Z,20.80
2018-08-13T10:12:23.770Z,20.80
2018-08-13T10:14:51.227Z,20.90
2018-08-13T10:17:18.800Z,20.80
2018-08-13T10:19:46.359Z,20.80
2018-08-13T10:22:13.828Z,20.80
2018-08-13T10:24:41.384Z,20.80
2018-08-13T10:27:08.839Z,20.40
2018-08-13T10:29:36.300Z,20.00
2018-08-13T10:32:03.754Z,19.30
2018-08-13T10:34:31.233Z,18.90
2018-08-13T10:36:58.700Z,18.90
2018-08-13T10:39:26.147Z,18.70
2018-08-13T10:41:53.723Z,18.60
2018-08-13T10:44:21.289Z,18.60
2018-08-13T10:46:48.852Z,18.80
2018-08-13T10:49:16.308Z,18.90
2018-08-13T10:51:43.775Z,18.70
2018-08-13T10:54:11.339Z,18.70
2018-08-13T10:56:38.808Z,18.70
2018-08-13T10:59:06.256Z,18.70
2018-08-13T11:01:33.716Z,18.70
2018-08-13T11:04:01.176Z,18.70
2018-08-13T11:06:28.648Z,18.70
2018-08-13T11:08:56.107Z,18.70
2018-08-13T11:11:23.571Z,18.70
2018-08-13T11:13:51.035Z,18.70
2018-08-13T11:16:18.487Z,18.90
2018-08-13T11:18:45.953Z,18.90
2018-08-13T11:21:13.433Z,18.80
2018-08-13T11:23:40.900Z,18.90
2018-08-13T11:26:08.453Z,18.90
2018-08-13T11:28:35.964Z,18.90
2018-08-13T11:31:03.399Z,18.80
2018-08-13T11:33:30.946Z,18.70
2018-08-13T11:35:58.412Z,18.80
2018-08-13T11:38:25.963Z,18.80
2018-08-13T11:40:53.531Z,18.80
2018-08-13T11:43:21.000Z,18.80
2018-08-13T11:45:48.465Z,18.70
2018-08-13T11:48:15.920Z,18.80
2018-08-13T11:50:43.500Z,18.70
2018-08-13T11:53:10.951Z,18.60
2018-08-13T11:55:39.928Z,18.70
2018-08-13T11:58:07.393Z,18.70
2018-08-13T12:00:34.858Z,18.80
2018-08-13T12:03:02.421Z,18.80
2018-08-13T12:05:29.886Z,18.80
2018-08-13T12:07:57.348Z,18.80
2018-08-13T12:10:24.796Z,18.80
2018-08-13T12:12:52.274Z,18.70
2018-08-13T12:15:19.730Z,18.70
2018-08-13T12:17:47.171Z,18.80
2018-08-13T12:20:14.640Z,18.80
2018-08-13T12:22:42.102Z,18.90
2018-08-13T12:25:09.581Z,18.80
2018-08-13T12:27:37.040Z,19.00
2018-08-13T12:30:04.492Z,18.90
2018-08-13T12:32:31.965Z,19.00
2018-08-13T12:34:59.555Z,19.00
2018-08-13T12:37:27.106Z,19.00
2018-08-13T12:39:54.583Z,19.00
2018-08-13T12:42:22.841Z,19.00
2018-08-13T12:44:50.393Z,19.00
2018-08-13T12:47:17.964Z,19.10
2018-08-13T12:49:45.542Z,19.10
2018-08-13T12:52:12.992Z,19.10
2018-08-13T12:54:40.454Z,19.20
2018-08-13T12:57:08.076Z,19.30
2018-08-13T12:59:35.589Z,19.20
2018-08-13T13:02:03.154Z,19.30
2018-08-13T13:04:30.712Z,19.20
2018-08-13T13:06:58.280Z,19.20
2018-08-13T13:09:25.745Z,19.30
2018-08-13T13:11:53.204Z,19.30
2018-08-13T13:14:20.768Z,19.40
2018-08-13T13:16:48.336Z,19.40
2018-08-13T13:19:15.811Z,19.30
2018-08-13T13:21:43.372Z,19.30
2018-08-13T13:24:10.919Z,19.30
2018-08-13T13:26:38.489Z,19.30
2018-08-13T13:29:05.958Z,19.40
2018-08-13T13:31:34.927Z,19.60
2018-08-13T13:34:02.379Z,19.60
2018-08-13T13:36:29.846Z,19.90
2018-08-13T13:38:57.303Z,20.20
2018-08-13T13:41:24.791Z,20.30
2018-08-13T13:43:53.383Z,20.60
2018-08-13T13:46:20.936Z,20.50
2018-08-13T13:48:48.310Z,20.60
2018-08-13T13:51:15.872Z,20.60
2018-08-13T13:53:43.434Z,20.40
2018-08-13T13:56:10.897Z,20.20
2018-08-13T13:58:38.460Z,20.20
2018-08-13T14:01:07.155Z,20.00
2018-08-13T14:03:34.719Z,20.00
2018-08-13T14:06:02.176Z,20.00
2018-08-13T14:08:29.738Z,20.10
2018-08-13T14:10:57.299Z,20.20
2018-08-13T14:13:24.768Z,20.20
2018-08-13T14:15:52.221Z,20.20
2018-08-13T14:18:19.688Z,20.30
2018-08-13T14:20:47.144Z,20.40
2018-08-13T14:23:14.620Z,20.30
2018-08-13T14:25:42.080Z,20.30
2018-08-13T14:30:49.871Z,20.30
2018-08-13T14:33:17.368Z,20.20
2018-08-13T14:35:44.927Z,20.20
2018-08-13T14:38:12.494Z,20.20
2018-08-13T14:40:39.944Z,20.30
2018-08-13T14:43:07.407Z,20.30
2018-08-13T14:45:34.971Z,20.30
2018-08-13T14:48:02.643Z,20.20
2018-08-13T14:50:30.206Z,20.70
2018-08-13T14:52:57.772Z,21.00
2018-08-13T14:55:25.351Z,21.10
2018-08-13T14:57:52.908Z,21.00
2018-08-13T15:00:20.376Z,21.00
2018-08-13T15:02:47.936Z,21.00
2018-08-13T15:05:15.407Z,21.00
2018-08-13T15:07:42.967Z,20.90
2018-08-13T15:10:10.522Z,20.80
2018-08-13T15:12:38.763Z,20.70
2018-08-13T15:15:06.261Z,20.60
2018-08-13T15:17:33.714Z,20.70
2018-08-13T15:20:01.176Z,20.70
2018-08-13T15:22:28.652Z,20.60
2018-08-13T15:24:56.108Z,20.70
2018-08-13T15:27:23.731Z,20.70
2018-08-13T15:29:51.036Z,20.60
2018-08-13T15:32:18.505Z,20.60
2018-08-13T15:34:45.984Z,20.80
2018-08-13T15:37:13.517Z,20.90
2018-08-13T15:39:41.084Z,20.90
2018-08-13T15:42:08.637Z,20.90
2018-08-13T15:44:36.008Z,20.80
2018-08-13T15:47:03.478Z,20.70
2018-08-13T15:49:30.924Z,20.80
2018-08-13T15:51:58.489Z,20.70
2018-08-13T15:54:25.962Z,20.70
2018-08-13T15:56:53.426Z,20.70
2018-08-13T15:59:20.876Z,20.60
2018-08-13T16:01:48.363Z,20.70
2018-08-13T16:04:15.814Z,20.60
2018-08-13T16:06:43.283Z,20.70
2018-08-13T16:09:10.844Z,20.70
2018-08-13T16:11:38.302Z,20.30
2018-08-13T16:14:05.777Z,20.30
2018-08-13T16:16:33.226Z,20.30
2018-08-13T16:19:00.785Z,20.30
2018-08-13T16:21:28.351Z,20.20
2018-08-13T16:23:55.916Z,20.20
2018-08-13T16:26:23.472Z,20.30
2018-08-13T16:28:50.933Z,20.30
2018-08-13T16:31:18.499Z,20.40
2018-08-13T16:33:46.071Z,20.40
2018-08-13T16:36:13.628Z,20.30
2018-08-13T16:38:41.190Z,20.20
2018-08-13T16:41:08.654Z,20.00
2018-08-13T16:43:36.129Z,20.00
2018-08-13T16:46:03.590Z,19.90
2018-08-13T16:48:31.049Z,19.90
2018-08-13T16:50:58.511Z,19.90
2018-08-13T16:53:25.976Z,20.00
2018-08-13T16:55:53.464Z,20.10
2018-08-13T16:58:21.708Z,20.00
2018-08-13T17:00:49.168Z,20.00
2018-08-13T17:03:16.628Z,19.90
2018-08-13T17:05:44.196Z,19.80
2018-08-13T17:08:11.725Z,19.70
2018-08-13T17:10:39.227Z,19.90
2018-08-13T17:13:06.676Z,19.80
2018-08-13T17:15:34.964Z,19.80
2018-08-13T17:18:02.537Z,19.80
2018-08-13T17:20:29.998Z,19.80
2018-08-13T17:22:57.455Z,19.80
2018-08-13T17:25:24.905Z,19.90
2018-08-13T17:27:52.395Z,19.80
2018-08-13T17:30:19.837Z,19.90
2018-08-13T17:32:47.297Z,19.90
2018-08-13T17:35:14.751Z,19.80
2018-08-13T17:37:42.315Z,19.80
2018-08-13T17:40:09.763Z,19.70
2018-08-13T17:42:37.237Z,19.90
2018-08-13T17:45:04.711Z,19.80
2018-08-13T17:47:32.267Z,19.70
2018-08-13T17:49:59.733Z,19.70
2018-08-13T17:52:27.183Z,19.80
2018-08-13T17:54:54.667Z,19.60
2018-08-13T17:57:22.132Z,19.60
2018-08-13T17:59:49.687Z,19.50
2018-08-13T18:02:17.266Z,19.50
2018-08-13T18:04:44.723Z,19.50
2018-08-13T18:07:12.283Z,19.60
2018-08-13T18:09:39.884Z,19.60
2018-08-13T18:12:07.414Z,19.60
2018-08-13T18:14:34.977Z,19.60
2018-08-13T18:17:02.435Z,19.60
2018-08-13T18:19:29.891Z,19.60
2018-08-13T18:21:57.363Z,19.70
2018-08-13T18:24:24.840Z,19.60
2018-08-13T18:26:52.288Z,19.60
2018-08-13T18:29:19.849Z,19.50
2018-08-13T18:31:47.310Z,19.60
2018-08-13T18:34:14.768Z,19.40
2018-08-13T18:36:42.235Z,19.40
2018-08-13T18:39:09.695Z,19.50
2018-08-13T18:41:37.143Z,19.40
2018-08-13T18:44:04.604Z,19.30
2018-08-13T18:46:32.058Z,19.40
2018-08-13T18:48:59.521Z,19.40
2018-08-13T18:51:26.975Z,19.40
2018-08-13T18:53:54.432Z,19.40
2018-08-13T18:56:21.886Z,19.40
2018-08-13T18:58:49.388Z,19.40
2018-08-13T19:01:16.851Z,19.50
2018-08-13T19:03:44.309Z,19.40
2018-08-13T19:06:11.780Z,19.50
2018-08-13T19:08:39.231Z,19.80
2018-08-13T19:11:06.680Z,19.60
2018-08-13T19:13:34.159Z,19.40
2018-08-13T19:16:01.613Z,19.40
2018-08-13T19:18:29.092Z,19.30
2018-08-13T19:20:56.557Z,19.30
2018-08-13T19:23:24.010Z,19.30
2018-08-13T19:25:51.581Z,19.30
2018-08-13T19:28:19.136Z,19.40
2018-08-13T19:30:46.583Z,19.30
2018-08-13T19:33:14.095Z,19.20
2018-08-13T19:35:41.523Z,19.30
2018-08-13T19:38:08.995Z,19.20
2018-08-13T19:40:36.560Z,19.20
2018-08-13T19:43:04.019Z,19.30
2018-08-13T19:45:31.583Z,19.20
2018-08-13T19:47:59.151Z,19.30
2018-08-13T19:50:26.613Z,19.20
2018-08-13T19:52:54.080Z,19.20
2018-08-13T19:55:21.573Z,19.20
2018-08-13T19:57:49.001Z,19.10
2018-08-13T20:00:16.561Z,19.10
2018-08-13T20:02:44.008Z,19.20
2018-08-13T20:05:11.593Z,19.20
2018-08-13T20:07:39.143Z,19.20
2018-08-13T20:10:06.720Z,19.30
2018-08-13T20:12:34.176Z,19.30
2018-08-13T20:15:01.620Z,19.20
2018-08-13T20:17:29.071Z,19.20
2018-08-13T20:19:56.585Z,19.20
2018-08-13T20:22:24.134Z,19.10
2018-08-13T20:24:51.588Z,19.00
2018-08-13T20:27:19.162Z,19.10
2018-08-13T20:29:46.733Z,19.00
2018-08-13T20:32:14.187Z,19.10
2018-08-13T20:34:41.646Z,19.10
2018-08-13T20:37:09.205Z,19.10
2018-08-13T20:39:36.765Z,19.10
2018-08-13T20:42:04.239Z,19.00
2018-08-13T20:44:31.698Z,19.00
2018-08-13T20:46:59.263Z,19.10
2018-08-13T20:49:26.908Z,19.10
2018-08-13T20:51:54.394Z,19.10
2018-08-13T20:54:21.958Z,19.10
2018-08-13T20:56:49.418Z,19.10
2018-08-13T20:59:16.879Z,19.10
2018-08-13T21:01:45.158Z,18.90
2018-08-13T21:04:12.720Z,18.90
2018-08-13T21:06:40.168Z,19.00
2018-08-13T21:09:07.669Z,18.90
2018-08-13T21:11:35.086Z,18.90
2018-08-13T21:14:02.559Z,18.90
2018-08-13T21:16:30.036Z,18.90
2018-08-13T21:18:57.595Z,18.90
2018-08-13T21:21:25.047Z,18.90
2018-08-13T21:23:52.508Z,18.90
2018-08-13T21:26:20.007Z,18.80
2018-08-13T21:28:47.437Z,18.90
2018-08-13T21:31:14.945Z,18.90
2018-08-13T21:33:42.346Z,18.90
2018-08-13T21:36:09.831Z,18.80
2018-08-13T21:38:37.397Z,18.90
2018-08-13T21:41:04.952Z,19.00
2018-08-13T21:43:32.426Z,19.00
2018-08-13T21:45:59.988Z,18.80
2018-08-13T21:48:27.443Z,18.80
2018-08-13T21:50:55.014Z,18.80
2018-08-13T21:53:22.470Z,18.90
2018-08-13T21:55:49.924Z,18.90
2018-08-13T21:58:17.380Z,18.80
2018-08-13T22:00:44.836Z,18.80
2018-08-13T22:03:12.320Z,18.80
2018-08-13T22:05:39.878Z,18.80
2018-08-13T22:08:07.444Z,18.80
2018-08-13T22:10:34.908Z,18.80
2018-08-13T22:13:02.472Z,18.80
2018-08-13T22:15:29.920Z,18.70
2018-08-13T22:17:57.397Z,18.80
2018-08-13T22:20:24.842Z,18.80
2018-08-13T22:22:52.336Z,18.80
2018-08-13T22:25:19.784Z,18.90
2018-08-13T22:27:47.256Z,18.80
2018-08-13T22:30:14.768Z,18.80
2018-08-13T22:32:42.272Z,18.80
2018-08-13T22:35:09.837Z,18.80
2018-08-13T22:37:37.316Z,18.80
2018-08-13T22:40:04.870Z,18.80
2018-08-13T22:42:32.312Z,18.80
2018-08-13T22:44:59.779Z,18.80
2018-08-13T22:47:27.228Z,18.70
2018-08-13T22:49:54.702Z,18.80
2018-08-13T22:52:22.145Z,18.70
2018-08-13T22:54:49.632Z,18.80
2018-08-13T22:57:17.088Z,18.80
2018-08-13T22:59:44.543Z,18.80
2018-08-13T23:02:12.013Z,18.70
2018-08-13T23:04:39.579Z,18.70
2018-08-13T23:07:07.057Z,18.70
2018-08-13T23:09:34.621Z,18.70
2018-08-13T23:12:02.085Z,18.70
2018-08-13T23:14:29.563Z,18.70
2018-08-13T23:16:57.815Z,18.70
2018-08-13T23:19:25.379Z,18.70
2018-08-13T23:21:52.943Z,18.70
2018-08-13T23:24:20.499Z,18.70
2018-08-13T23:26:48.077Z,18.60
2018-08-13T23:29:15.635Z,18.70
2018-08-13T23:31:43.107Z,18.70
2018-08-13T23:34:10.548Z,18.70
2018-08-13T23:36:38.023Z,18.70
2018-08-13T23:39:05.480Z,18.70
2018-08-13T23:41:33.059Z,18.70
2018-08-13T23:44:00.616Z,18.80
2018-08-13T23:46:28.168Z,18.70
2018-08-13T23:48:55.744Z,18.70
2018-08-13T23:51:24.045Z,18.70
2018-08-13T23:53:51.498Z,18.70
2018-08-13T23:56:19.059Z,18.80
2018-08-13T23:58:46.609Z,18.80
